Time;durP1;ratioP1;P1;durP2;ratioP2;P2;SDS_P1;SDS_P2;PMS_P1;PMS_P2;Temp;Humidity;BMP_temperature;BMP_pressure;BME280_temperature;BME280_humidity;BME280_pressure;Samples;Min_cycle;Max_cycle;Signal;HPM_P1;HPM_P2
2022/04/11 00:00:43;;;;;;;17.02;9.40;;;4.40;68.40;;;;;;5093028;28;20028;-13
2022/04/11 00:03:09;;;;;;;11.82;6.70;;;4.40;69.70;;;;;;5093241;28;20036;-12
2022/04/11 00:05:35;;;;;;;12.70;7.00;;;4.40;69.20;;;;;;5093006;28;20384;-12
2022/04/11 00:08:01;;;;;;;15.50;8.07;;;4.40;69.80;;;;;;5093256;28;20056;-13
2022/04/11 00:10:27;;;;;;;12.70;6.50;;;4.30;69.60;;;;;;5092612;28;20492;-13
2022/04/11 00:13:02;;;;;;;13.35;6.95;;;4.30;68.70;;;;;;5093105;28;20025;-13
2022/04/11 00:15:28;;;;;;;10.45;5.90;;;4.20;69.40;;;;;;5092953;28;20423;-12
2022/04/11 00:17:54;;;;;;;15.35;7.88;;;4.20;68.40;;;;;;5093213;28;20051;-12
2022/04/11 00:20:20;;;;;;;13.88;7.88;;;4.20;68.60;;;;;;5093108;28;20480;-11
2022/04/11 00:22:46;;;;;;;16.10;9.27;;;4.10;68.50;;;;;;5092747;28;20028;-12
2022/04/11 00:25:12;;;;;;;14.85;8.65;;;4.10;69.30;;;;;;5093159;28;20016;-12
2022/04/11 00:27:38;;;;;;;15.88;8.85;;;4.10;69.50;;;;;;5092703;28;20357;-12
2022/04/11 00:30:04;;;;;;;16.13;8.88;;;4.10;69.50;;;;;;5093077;28;20051;-13
2022/04/11 00:32:31;;;;;;;14.80;8.32;;;4.00;70.20;;;;;;5092757;28;20107;-12
2022/04/11 00:34:57;;;;;;;18.70;10.50;;;4.00;69.80;;;;;;5092733;28;20024;-14
2022/04/11 00:37:23;;;;;;;21.60;11.48;;;3.90;69.70;;;;;;5093018;28;20116;-13
2022/04/11 00:39:49;;;;;;;16.58;9.35;;;3.90;69.90;;;;;;5092977;28;20030;-13
2022/04/11 00:42:15;;;;;;;15.57;9.25;;;3.90;70.20;;;;;;5092362;28;20383;-11
2022/04/11 00:44:42;;;;;;;24.83;13.15;;;3.90;70.00;;;;;;5092934;28;20032;-12
2022/04/11 00:47:08;;;;;;;16.33;9.05;;;3.80;71.30;;;;;;5094988;28;20028;-13
2022/04/11 00:49:34;;;;;;;13.23;7.85;;;3.70;71.60;;;;;;5096367;28;20357;-12
2022/04/11 00:52:00;;;;;;;23.65;11.77;;;3.70;70.40;;;;;;5096550;28;20028;-12
2022/04/11 00:54:29;;;;;;;16.42;9.32;;;3.60;72.60;;;;;;5094735;28;20077;-12
2022/04/11 00:56:57;;;;;;;14.07;7.88;;;3.60;72.30;;;;;;5096560;28;20020;-12
2022/04/11 00:59:25;;;;;;;14.88;8.68;;;3.60;70.80;;;;;;5096699;28;20095;-12
2022/04/11 01:01:51;;;;;;;17.33;9.27;;;3.60;71.50;;;;;;5096365;28;20035;-13
2022/04/11 01:04:27;;;;;;;15.50;7.88;;;3.50;72.30;;;;;;5095767;28;20408;-12
2022/04/11 01:06:57;;;;;;;15.75;9.30;;;3.40;71.50;;;;;;5096363;28;20035;-12
2022/04/11 01:09:26;;;;;;;18.33;9.35;;;3.40;71.30;;;;;;5096049;28;20139;-13
2022/04/11 01:11:53;;;;;;;14.30;7.38;;;3.40;71.50;;;;;;5095966;28;20032;-12
2022/04/11 01:14:20;;;;;;;14.25;8.60;;;3.30;71.60;;;;;;5095781;28;20020;-12
2022/04/11 01:16:50;;;;;;;16.02;8.55;;;3.30;71.70;;;;;;5095795;28;20454;-13
2022/04/11 01:19:17;;;;;;;18.17;9.25;;;3.20;71.70;;;;;;5094568;28;20043;-12
2022/04/11 01:21:44;;;;;;;15.93;8.27;;;3.20;71.50;;;;;;5095744;28;20059;-13
2022/04/11 01:24:10;;;;;;;19.92;9.90;;;3.10;72.30;;;;;;5095928;28;20036;-12
2022/04/11 01:26:37;;;;;;;16.77;9.07;;;3.20;72.20;;;;;;5095436;28;20024;-12
2022/04/11 01:29:04;;;;;;;19.80;10.48;;;3.10;72.20;;;;;;5094653;28;20023;-12
2022/04/11 01:31:31;;;;;;;19.27;10.75;;;3.10;72.60;;;;;;5095555;28;20530;-12
2022/04/11 01:33:57;;;;;;;17.20;8.80;;;3.10;73.80;;;;;;5095537;28;20035;-12
2022/04/11 01:36:23;;;;;;;18.38;9.35;;;3.00;72.80;;;;;;5095364;28;20074;-12
2022/04/11 01:38:50;;;;;;;19.95;10.15;;;3.00;73.50;;;;;;5095717;28;20024;-13
2022/04/11 01:41:16;;;;;;;14.77;8.35;;;3.00;72.50;;;;;;5095659;28;20123;-12
2022/04/11 01:43:42;;;;;;;17.50;9.23;;;3.00;72.60;;;;;;5095204;28;20115;-12
2022/04/11 01:46:07;;;;;;;12.52;7.63;;;3.00;72.60;;;;;;5095274;28;20120;-12
2022/04/11 01:48:34;;;;;;;16.80;8.45;;;3.00;72.70;;;;;;5095318;28;20020;-12
2022/04/11 01:50:59;;;;;;;17.17;9.70;;;3.00;72.70;;;;;;5095403;28;20073;-13
2022/04/11 01:53:25;;;;;;;15.10;7.78;;;3.00;73.40;;;;;;5095474;28;20016;-12
2022/04/11 01:55:51;;;;;;;16.45;9.35;;;3.00;72.50;;;;;;5095136;28;20476;-13
2022/04/11 01:58:17;;;;;;;20.20;9.18;;;3.00;72.50;;;;;;5093587;28;20028;-11
2022/04/11 02:00:43;;;;;;;17.27;8.75;;;3.00;72.50;;;;;;5094878;28;20027;-12
2022/04/11 02:03:10;;;;;;;15.30;7.72;;;3.00;72.50;;;;;;5095244;28;20040;-13
2022/04/11 02:05:38;;;;;;;17.52;8.32;;;3.00;72.50;;;;;;5095219;28;20032;-11
2022/04/11 02:08:06;;;;;;;12.75;7.07;;;3.00;72.40;;;;;;5094812;28;20028;-12
2022/04/11 02:10:32;;;;;;;18.00;9.73;;;3.00;72.60;;;;;;5094415;28;20139;-12
2022/04/11 02:12:58;;;;;;;18.33;9.90;;;3.00;72.90;;;;;;5094940;28;20028;-12
2022/04/11 02:15:24;;;;;;;19.48;10.38;;;3.00;73.30;;;;;;5094996;28;20526;-11
2022/04/11 02:17:51;;;;;;;17.33;9.50;;;2.90;73.10;;;;;;5094976;28;20031;-12
2022/04/11 02:20:17;;;;;;;19.30;9.70;;;2.90;72.80;;;;;;5094694;28;20024;-11
2022/04/11 02:22:52;;;;;;;15.27;8.45;;;2.90;72.50;;;;;;5094412;28;20039;-12
2022/04/11 02:25:20;;;;;;;13.82;7.10;;;2.90;73.20;;;;;;5094491;28;20029;-11
2022/04/11 02:27:48;;;;;;;14.55;7.50;;;2.80;73.50;;;;;;5094683;28;20404;-11
2022/04/11 02:30:15;;;;;;;16.50;7.78;;;2.80;73.40;;;;;;5094594;28;20024;-11
2022/04/11 02:32:41;;;;;;;12.48;7.13;;;2.80;73.40;;;;;;5094259;28;20035;-11
2022/04/11 02:35:08;;;;;;;13.60;6.93;;;2.80;72.90;;;;;;5094285;28;20130;-13
2022/04/11 02:37:34;;;;;;;14.48;7.53;;;2.70;73.10;;;;;;5094598;28;20047;-11
2022/04/11 02:40:02;;;;;;;12.30;6.18;;;2.70;72.60;;;;;;5094481;28;20085;-12
2022/04/11 02:42:28;;;;;;;16.23;8.25;;;2.70;72.70;;;;;;5093859;28;20036;-12
2022/04/11 02:44:54;;;;;;;16.27;8.75;;;2.70;73.30;;;;;;5094452;28;20020;-13
2022/04/11 02:47:20;;;;;;;16.92;9.18;;;2.70;73.80;;;;;;5094068;28;20034;-12
2022/04/11 02:49:47;;;;;;;15.68;8.55;;;2.70;73.30;;;;;;5095151;28;20082;-12
2022/04/11 02:52:14;;;;;;;12.63;7.00;;;2.70;73.80;;;;;;5092575;28;20024;-12
2022/04/11 02:54:40;;;;;;;11.63;6.68;;;2.70;73.90;;;;;;5094001;28;20406;-12
2022/04/11 02:57:07;;;;;;;13.45;6.97;;;2.70;72.80;;;;;;5093814;28;20028;-12
2022/04/11 02:59:34;;;;;;;14.93;8.13;;;2.70;72.60;;;;;;5094270;28;20032;-12
2022/04/11 03:02:00;;;;;;;15.30;8.20;;;2.70;72.20;;;;;;5093875;28;20449;-12
2022/04/11 03:04:27;;;;;;;14.10;6.47;;;2.60;72.10;;;;;;5092284;28;20036;-11
2022/04/11 03:06:54;;;;;;;13.07;6.50;;;2.60;72.30;;;;;;5093730;28;20020;-12
2022/04/11 03:09:20;;;;;;;11.73;6.10;;;2.60;72.40;;;;;;5093709;28;20051;-12
2022/04/11 03:11:46;;;;;;;11.93;6.90;;;2.60;72.60;;;;;;5093944;28;20024;-12
2022/04/11 03:14:12;;;;;;;15.77;7.18;;;2.60;72.40;;;;;;5093891;28;20016;-12
2022/04/11 03:16:40;;;;;;;15.75;8.27;;;2.60;72.50;;;;;;5093873;28;20024;-12
2022/04/11 03:19:06;;;;;;;16.00;8.02;;;2.60;72.60;;;;;;5093952;28;20099;-11
2022/04/11 03:21:32;;;;;;;14.32;7.43;;;2.60;72.80;;;;;;5094133;28;20028;-12
2022/04/11 03:23:58;;;;;;;12.63;6.63;;;2.70;72.80;;;;;;5094284;28;20039;-12
2022/04/11 03:26:24;;;;;;;16.15;8.18;;;2.70;72.70;;;;;;5093873;28;20028;-13
2022/04/11 03:28:50;;;;;;;18.33;8.85;;;2.70;73.00;;;;;;5093501;28;20031;-12
2022/04/11 03:31:17;;;;;;;14.70;8.00;;;2.70;72.80;;;;;;5093994;28;20024;-12
2022/04/11 03:33:43;;;;;;;15.48;8.68;;;2.70;72.90;;;;;;5093634;28;20024;-13
2022/04/11 03:36:09;;;;;;;15.38;8.60;;;2.70;73.40;;;;;;5093623;28;20529;-13
2022/04/11 03:38:36;;;;;;;18.17;9.18;;;2.70;73.60;;;;;;5093136;28;20020;-12
2022/04/11 03:41:02;;;;;;;17.15;8.50;;;2.70;73.80;;;;;;5091964;28;20035;-12
2022/04/11 03:43:28;;;;;;;13.15;6.97;;;2.70;73.90;;;;;;5093397;28;20028;-13
2022/04/11 03:45:54;;;;;;;15.77;7.78;;;2.70;74.30;;;;;;5093171;28;20501;-12
2022/04/11 03:48:20;;;;;;;13.70;6.72;;;2.70;75.00;;;;;;5093318;28;20028;-12
2022/04/11 03:50:46;;;;;;;11.13;5.90;;;2.70;74.40;;;;;;5093090;28;20032;-12
2022/04/11 03:53:12;;;;;;;9.93;5.65;;;2.60;74.30;;;;;;5093075;28;20499;-12
2022/04/11 03:55:38;;;;;;;12.32;6.43;;;2.60;74.40;;;;;;5093126;28;20032;-12
2022/04/11 03:58:04;;;;;;;10.75;6.35;;;2.60;75.40;;;;;;5093291;28;20035;-13
2022/04/11 04:00:30;;;;;;;13.10;5.35;;;2.50;74.70;;;;;;5091598;28;20183;-14
2022/04/11 04:03:12;;;;;;;11.63;5.47;;;2.50;73.80;;;;;;5093209;28;20508;-13
2022/04/11 04:05:42;;;;;;;8.88;5.28;;;2.40;73.60;;;;;;5093097;28;20020;-13
2022/04/11 04:08:09;;;;;;;12.23;7.03;;;2.40;73.50;;;;;;5093007;28;20493;-12
2022/04/11 04:10:40;;;;;;;11.00;6.40;;;2.40;74.50;;;;;;5092596;28;20079;-12
2022/04/11 04:13:06;;;;;;;12.52;5.93;;;2.40;75.30;;;;;;5093188;28;20115;-12
2022/04/11 04:15:32;;;;;;;11.05;6.07;;;2.40;76.20;;;;;;5092904;28;20622;-12
2022/04/11 04:17:58;;;;;;;9.88;5.38;;;2.40;75.50;;;;;;5092946;28;20024;-12
2022/04/11 04:20:26;;;;;;;11.88;6.43;;;2.40;74.70;;;;;;5092759;28;20016;-12
2022/04/11 04:22:55;;;;;;;11.05;5.18;;;2.40;74.50;;;;;;5096268;28;20188;-12
2022/04/11 04:25:21;;;;;;;12.98;5.82;;;2.40;74.10;;;;;;5097461;28;20023;-13
2022/04/11 04:27:47;;;;;;;14.93;6.75;;;2.40;74.40;;;;;;5096951;28;20027;-12
2022/04/11 04:30:13;;;;;;;16.77;8.38;;;2.40;75.00;;;;;;5096561;28;20030;-12
2022/04/11 04:32:40;;;;;;;11.73;6.10;;;2.40;75.20;;;;;;5096952;28;20055;-12
2022/04/11 04:35:07;;;;;;;16.58;8.27;;;2.40;74.70;;;;;;5096878;28;20078;-13
2022/04/11 04:37:33;;;;;;;13.52;6.72;;;2.40;74.70;;;;;;5096547;28;20028;-12
2022/04/11 04:39:59;;;;;;;17.95;8.27;;;2.40;74.00;;;;;;5097383;28;20024;-12
2022/04/11 04:42:28;;;;;;;10.73;6.30;;;2.40;73.60;;;;;;5096416;28;20035;-11
2022/04/11 04:44:54;;;;;;;13.35;7.93;;;2.50;74.10;;;;;;5097030;28;20032;-12
2022/04/11 04:47:21;;;;;;;13.43;7.38;;;2.50;74.40;;;;;;5096712;28;20073;-12
2022/04/11 04:49:47;;;;;;;14.45;8.05;;;2.50;74.80;;;;;;5095691;28;20021;-12
2022/04/11 04:52:13;;;;;;;16.48;7.90;;;2.60;74.70;;;;;;5096192;28;20027;-13
2022/04/11 04:54:40;;;;;;;19.55;7.53;;;2.60;73.80;;;;;;5096151;28;20492;-12
2022/04/11 04:57:06;;;;;;;12.82;6.57;;;2.70;73.70;;;;;;5096162;28;20024;-12
2022/04/11 04:59:32;;;;;;;11.15;6.22;;;2.70;73.60;;;;;;5096401;28;20028;-13
2022/04/11 05:01:58;;;;;;;11.30;6.10;;;2.80;74.10;;;;;;5096478;28;20024;-14
2022/04/11 05:04:24;;;;;;;13.75;7.85;;;2.80;74.40;;;;;;5095753;28;20032;-12
2022/04/11 05:06:50;;;;;;;15.20;8.10;;;2.80;73.60;;;;;;5096366;28;20114;-13
2022/04/11 05:09:16;;;;;;;15.27;7.95;;;2.80;73.20;;;;;;5095846;28;20072;-13
2022/04/11 05:11:42;;;;;;;20.10;8.88;;;2.90;73.20;;;;;;5096120;28;20492;-13
2022/04/11 05:14:08;;;;;;;14.75;7.38;;;2.90;73.20;;;;;;5095905;28;20022;-12
2022/04/11 05:16:34;;;;;;;15.77;7.50;;;3.00;73.20;;;;;;5095713;28;20077;-13
2022/04/11 05:19:00;;;;;;;18.30;8.30;;;3.10;73.30;;;;;;5095827;28;20024;-14
2022/04/11 05:21:26;;;;;;;13.30;6.88;;;3.20;73.60;;;;;;5096133;28;20035;-14
2022/04/11 05:23:52;;;;;;;18.48;9.23;;;3.40;73.40;;;;;;5095611;28;20077;-14
2022/04/11 05:26:18;;;;;;;18.48;8.80;;;3.50;73.30;;;;;;5095443;28;20032;-14
2022/04/11 05:28:46;;;;;;;18.05;8.70;;;3.70;72.80;;;;;;5095806;28;20426;-13
2022/04/11 05:31:11;;;;;;;21.65;9.90;;;3.90;72.80;;;;;;5095573;28;20032;-14
2022/04/11 05:33:37;;;;;;;19.85;10.73;;;4.30;72.80;;;;;;5095543;28;20017;-13
2022/04/11 05:36:03;;;;;;;15.57;8.05;;;4.70;73.20;;;;;;5095794;28;20388;-13
2022/04/11 05:38:29;;;;;;;15.20;7.43;;;5.10;72.20;;;;;;5095317;28;20103;-13
2022/04/11 05:40:58;;;;;;;14.77;7.80;;;5.70;71.90;;;;;;5095982;28;20107;-13
2022/04/11 05:43:24;;;;;;;11.15;6.25;;;6.20;71.90;;;;;;5095514;28;20497;-13
2022/04/11 05:45:50;;;;;;;12.90;6.60;;;6.70;70.60;;;;;;5094066;28;20063;-14
2022/04/11 05:48:16;;;;;;;13.57;6.68;;;7.30;69.70;;;;;;5095192;28;20044;-13
2022/04/11 05:50:42;;;;;;;13.00;6.68;;;7.70;69.00;;;;;;5095192;28;20020;-14
2022/04/11 05:53:08;;;;;;;14.75;7.18;;;8.00;68.50;;;;;;5095188;28;20143;-13
2022/04/11 05:55:34;;;;;;;18.35;8.32;;;8.40;67.90;;;;;;5095031;28;20024;-13
2022/04/11 05:58:00;;;;;;;15.43;7.72;;;8.80;67.50;;;;;;5094880;28;20028;-13
2022/04/11 06:00:26;;;;;;;14.50;8.07;;;9.10;67.00;;;;;;5094806;28;20028;-13
2022/04/11 06:02:52;;;;;;;16.55;8.80;;;9.40;66.30;;;;;;5095479;28;20032;-12
2022/04/11 06:05:18;;;;;;;13.63;8.55;;;9.80;64.50;;;;;;5095112;28;20392;-13
2022/04/11 06:07:44;;;;;;;16.05;7.65;;;10.20;62.40;;;;;;5095175;28;20031;-14
2022/04/11 06:10:10;;;;;;;12.73;6.45;;;10.50;63.70;;;;;;5094815;28;20069;-13
2022/04/11 06:12:37;;;;;;;10.73;6.60;;;10.80;63.00;;;;;;5094498;28;20498;-14
2022/04/11 06:15:05;;;;;;;11.55;6.47;;;10.90;60.30;;;;;;5095025;28;20059;-13
2022/04/11 06:17:31;;;;;;;13.15;7.20;;;11.00;61.00;;;;;;5094691;28;20024;-13
2022/04/11 06:20:00;;;;;;;10.38;6.45;;;10.90;60.10;;;;;;5095164;28;20028;-13
2022/04/11 06:22:26;;;;;;;12.85;6.80;;;10.90;61.00;;;;;;5135877;22;20556;-17
2022/04/11 06:25:00;;;;;;;16.83;7.30;;;10.90;59.20;;;;;;5054345;28;20491;-17
2022/04/11 06:27:27;;;;;;;10.02;5.80;;;10.80;59.80;;;;;;5054358;28;20498;-15
2022/04/11 06:29:56;;;;;;;14.25;6.93;;;10.70;60.10;;;;;;5054883;28;20423;-16
2022/04/11 06:32:29;;;;;;;9.82;5.70;;;10.60;58.60;;;;;;5054076;28;20036;-17
2022/04/11 06:34:56;;;;;;;10.55;5.60;;;10.60;60.60;;;;;;5052827;28;20056;-17
2022/04/11 06:37:23;;;;;;;11.40;6.13;;;10.70;60.60;;;;;;5054309;28;20024;-16
2022/04/11 06:39:51;;;;;;;12.82;6.25;;;10.80;59.40;;;;;;5054116;28;20056;-16
2022/04/11 06:42:17;;;;;;;12.38;5.85;;;10.90;59.50;;;;;;5054055;28;20025;-16
2022/04/11 06:44:43;;;;;;;11.88;6.13;;;11.20;59.10;;;;;;5053586;28;20090;-16
2022/04/11 06:47:09;;;;;;;9.23;5.57;;;11.40;59.60;;;;;;5054371;28;20025;-16
2022/04/11 06:49:36;;;;;;;10.25;5.40;;;11.60;58.70;;;;;;5053934;28;20104;-18
2022/04/11 06:52:02;;;;;;;9.88;5.70;;;11.70;58.10;;;;;;5053741;28;20025;-16
2022/04/11 06:54:30;;;;;;;10.15;5.43;;;11.80;55.90;;;;;;5053674;28;20025;-16
2022/04/11 06:56:57;;;;;;;9.63;5.18;;;11.90;56.50;;;;;;5053692;28;20055;-16
2022/04/11 06:59:23;;;;;;;10.18;5.18;;;12.20;55.20;;;;;;5053773;28;20055;-16
2022/04/11 07:01:53;;;;;;;9.32;5.70;;;12.40;55.30;;;;;;5053719;28;20376;-16
2022/04/11 07:04:20;;;;;;;8.07;4.80;;;12.60;53.10;;;;;;5053473;28;20052;-16
2022/04/11 07:06:45;;;;;;;12.10;5.57;;;12.60;54.20;;;;;;5053846;28;20036;-16
2022/04/11 07:09:11;;;;;;;9.25;5.32;;;12.60;54.70;;;;;;5053419;28;20427;-16
2022/04/11 07:11:37;;;;;;;9.23;4.95;;;12.60;54.70;;;;;;5053476;28;20032;-15
2022/04/11 07:14:05;;;;;;;10.10;5.45;;;12.60;53.80;;;;;;5052284;28;20043;-17
2022/04/11 07:16:32;;;;;;;9.73;4.90;;;12.80;53.30;;;;;;5053467;28;20032;-17
2022/04/11 07:18:58;;;;;;;10.82;5.35;;;13.10;53.00;;;;;;5053279;28;20036;-15
2022/04/11 07:21:24;;;;;;;8.90;5.35;;;13.50;52.30;;;;;;5052928;28;20033;-15
2022/04/11 07:23:50;;;;;;;10.30;4.80;;;13.80;53.30;;;;;;5053381;28;20045;-16
2022/04/11 07:26:16;;;;;;;7.10;4.75;;;14.00;52.40;;;;;;5053360;28;20373;-17
2022/04/11 07:28:43;;;;;;;10.93;4.80;;;14.20;51.30;;;;;;5053363;28;20554;-17
2022/04/11 07:31:09;;;;;;;8.70;4.40;;;14.20;51.60;;;;;;5053775;28;20025;-16
2022/04/11 07:33:35;;;;;;;7.38;4.38;;;14.40;51.50;;;;;;5053134;28;20021;-17
2022/04/11 07:36:02;;;;;;;8.95;4.88;;;14.50;51.10;;;;;;5053100;28;20032;-17
2022/04/11 07:38:27;;;;;;;7.93;4.30;;;14.50;50.90;;;;;;5053132;28;20032;-16
2022/04/11 07:40:53;;;;;;;10.30;4.50;;;14.70;51.60;;;;;;5051794;28;20029;-16
2022/04/11 07:43:19;;;;;;;8.20;4.60;;;14.80;51.50;;;;;;5053275;28;20029;-16
2022/04/11 07:45:45;;;;;;;7.55;4.32;;;14.90;52.30;;;;;;5053601;28;20116;-16
2022/04/11 07:48:11;;;;;;;7.47;4.35;;;15.00;52.20;;;;;;5053087;28;20059;-17
2022/04/11 07:50:37;;;;;;;8.32;4.78;;;15.10;51.70;;;;;;5053093;28;20053;-16
2022/04/11 07:53:03;;;;;;;9.32;4.75;;;15.20;51.20;;;;;;5053023;28;20082;-16
2022/04/11 07:55:29;;;;;;;9.88;4.70;;;15.30;52.40;;;;;;5054260;28;20029;-16
2022/04/11 07:57:55;;;;;;;9.70;4.35;;;15.40;53.40;;;;;;5055932;28;20025;-16
2022/04/11 08:00:22;;;;;;;8.30;4.32;;;15.40;53.70;;;;;;5056754;28;20154;-16
2022/04/11 08:02:54;;;;;;;8.57;4.55;;;15.40;53.60;;;;;;5057267;28;20057;-16
2022/04/11 08:05:22;;;;;;;8.15;4.53;;;15.50;53.90;;;;;;5057154;28;20385;-16
2022/04/11 08:07:49;;;;;;;7.22;4.70;;;15.40;53.00;;;;;;5057110;28;20021;-17
2022/04/11 08:10:16;;;;;;;12.27;4.55;;;15.30;54.30;;;;;;5056928;28;20021;-16
2022/04/11 08:12:53;;;;;;;7.55;4.65;;;15.40;53.40;;;;;;5056832;28;20031;-16
2022/04/11 08:15:21;;;;;;;9.60;4.43;;;15.60;53.70;;;;;;5057104;28;20025;-16
2022/04/11 08:17:46;;;;;;;7.85;4.07;;;15.70;53.10;;;;;;5055901;28;20104;-16
2022/04/11 08:20:12;;;;;;;8.35;4.43;;;15.90;51.50;;;;;;5056487;28;20115;-21
2022/04/11 08:22:38;;;;;;;6.85;4.10;;;16.00;53.00;;;;;;5056245;28;20056;-16
2022/04/11 08:25:05;;;;;;;8.18;4.70;;;16.20;52.00;;;;;;5056966;28;20154;-17
2022/04/11 08:27:31;;;;;;;9.30;4.40;;;16.20;51.30;;;;;;5056496;28;20545;-16
2022/04/11 08:29:57;;;;;;;6.82;4.25;;;16.40;51.80;;;;;;5056814;28;20025;-16
2022/04/11 08:32:23;;;;;;;7.03;3.90;;;16.20;51.70;;;;;;5056336;28;20104;-16
2022/04/11 08:34:49;;;;;;;7.28;4.15;;;16.30;51.60;;;;;;5056404;28;20025;-17
2022/04/11 08:37:15;;;;;;;9.82;4.93;;;16.20;50.40;;;;;;5056309;28;20027;-17
2022/04/11 08:39:41;;;;;;;6.45;4.35;;;16.10;51.00;;;;;;5055414;28;20013;-16
2022/04/11 08:42:07;;;;;;;10.27;4.75;;;16.20;51.50;;;;;;5056362;28;20017;-17
2022/04/11 08:44:35;;;;;;;7.38;5.15;;;16.40;51.00;;;;;;5056040;28;20488;-17
2022/04/11 08:47:05;;;;;;;7.57;5.07;;;16.50;50.50;;;;;;5056136;28;20491;-15
2022/04/11 08:49:31;;;;;;;9.80;4.88;;;16.60;51.00;;;;;;5056246;28;20506;-16
2022/04/11 08:51:58;;;;;;;9.32;5.38;;;16.90;51.10;;;;;;5056041;28;20032;-18
2022/04/11 08:54:25;;;;;;;9.18;5.35;;;17.00;50.50;;;;;;5056081;28;20025;-16
2022/04/11 08:56:51;;;;;;;9.23;4.82;;;17.00;51.20;;;;;;5054599;28;20182;-16
2022/04/11 08:59:17;;;;;;;9.27;5.28;;;17.10;49.70;;;;;;5054752;28;20551;-16
2022/04/11 09:01:43;;;;;;;8.57;5.63;;;17.10;48.80;;;;;;5055872;28;20021;-15
2022/04/11 09:04:09;;;;;;;6.35;4.43;;;17.20;49.00;;;;;;5055879;28;20057;-16
2022/04/11 09:06:35;;;;;;;8.07;4.75;;;17.10;49.80;;;;;;5055344;28;20025;-16
2022/04/11 09:09:03;;;;;;;8.38;4.72;;;17.40;48.70;;;;;;5055970;28;20179;-16
2022/04/11 09:11:35;;;;;;;7.47;4.38;;;17.50;48.20;;;;;;5055748;28;20106;-16
2022/04/11 09:14:05;;;;;;;9.23;5.00;;;17.70;48.20;;;;;;5056240;28;20099;-17
2022/04/11 09:16:49;;;;;;;7.43;4.90;;;17.90;46.90;;;;;;5055506;28;20099;-16
2022/04/11 09:19:18;;;;;;;;;;;18.00;45.70;;;;;;5055956;28;20033;-15
2022/04/11 09:21:44;;;;;;;10.57;4.50;;;18.00;44.10;;;;;;5055499;28;20372;-15
2022/04/11 09:24:19;;;;;;;5.65;4.03;;;18.10;44.60;;;;;;5055504;28;20021;-16
2022/04/11 09:26:47;;;;;;;6.10;4.07;;;18.40;43.50;;;;;;5056124;28;20025;-16
2022/04/11 09:29:15;;;;;;;4.22;2.33;;;18.30;41.20;;;;;;5055711;28;20116;-16
2022/04/11 09:31:42;;;;;;;5.20;3.15;;;18.40;38.00;;;;;;5055689;28;20040;-16
2022/04/11 09:34:27;;;;;;;7.05;4.20;;;18.40;38.00;;;;;;5055602;28;20116;-16
2022/04/11 09:37:02;;;;;;;6.80;3.95;;;18.40;42.10;;;;;;5055490;28;20025;-16
2022/04/11 09:39:36;;;;;;;4.60;3.55;;;18.50;41.90;;;;;;5055398;28;20020;-16
2022/04/11 09:42:04;;;;;;;6.18;3.70;;;18.40;40.00;;;;;;5055527;28;20100;-17
2022/04/11 09:44:36;;;;;;;6.50;3.80;;;18.40;40.40;;;;;;5055146;28;20029;-17
2022/04/11 09:47:06;;;;;;;4.97;3.42;;;18.40;41.00;;;;;;5055420;28;20128;-16
2022/04/11 09:49:33;;;;;;;5.57;3.83;;;18.50;40.20;;;;;;5055103;28;20025;-17
2022/04/11 09:52:12;;;;;;;4.15;3.33;;;18.50;39.10;;;;;;5055162;28;20483;-16
2022/04/11 09:54:42;;;;;;;6.30;3.60;;;18.50;38.00;;;;;;5055596;28;20203;-17
2022/04/11 09:57:10;;;;;;;5.90;3.75;;;18.70;40.80;;;;;;5055050;28;20033;-17
2022/04/11 09:59:37;;;;;;;4.20;3.20;;;18.90;40.70;;;;;;5055147;28;20021;-16
2022/04/11 10:02:10;;;;;;;4.60;3.50;;;19.20;40.00;;;;;;5055376;28;20483;-16
2022/04/11 10:04:36;;;;;;;5.80;4.00;;;19.50;38.30;;;;;;5054521;28;20021;-17
2022/04/11 10:07:02;;;;;;;5.07;3.17;;;19.70;38.90;;;;;;5054587;28;20033;-16
2022/04/11 10:09:30;;;;;;;4.38;3.00;;;19.70;37.50;;;;;;5037031;28;20079;-16
2022/04/11 10:11:56;;;;;;;4.80;3.25;;;19.90;37.40;;;;;;5054934;28;20025;-16
2022/04/11 10:14:26;;;;;;;6.00;3.63;;;19.90;36.60;;;;;;5054563;28;20009;-16
2022/04/11 10:17:16;;;;;;;5.60;4.15;;;19.80;37.50;;;;;;5054910;28;20028;-18
2022/04/11 10:19:44;;;;;;;4.75;3.80;;;19.80;39.60;;;;;;5053824;28;20024;-18
2022/04/11 10:22:21;;;;;;;6.85;4.28;;;20.00;38.50;;;;;;5054430;28;20049;-15
2022/04/11 10:25:07;;;;;;;6.57;4.25;;;20.30;37.90;;;;;;5054629;28;20094;-16
2022/04/11 10:27:34;;;;;;;7.38;4.80;;;20.30;39.40;;;;;;5054392;28;20035;-16
2022/04/11 10:30:03;;;;;;;7.80;4.05;;;20.40;42.00;;;;;;5054477;28;20549;-15
2022/04/11 10:32:31;;;;;;;8.02;4.03;;;20.60;40.60;;;;;;5053985;28;20491;-18
2022/04/11 10:35:09;;;;;;;5.78;3.00;;;20.80;38.20;;;;;;5054238;28;20025;-18
2022/04/11 10:37:40;;;;;;;5.43;3.22;;;20.80;35.20;;;;;;5054376;28;20055;-16
2022/04/11 10:40:21;;;;;;;5.18;2.97;;;20.70;36.40;;;;;;5054345;28;20075;-15
2022/04/11 10:43:05;;;;;;;4.82;3.25;;;21.00;37.10;;;;;;5054225;28;20064;-15
2022/04/11 10:45:36;;;;;;;5.78;3.15;;;21.40;36.60;;;;;;5054218;28;20100;-18
2022/04/11 10:48:04;;;;;;;5.13;2.72;;;21.70;36.90;;;;;;5054171;28;20032;-16
2022/04/11 10:50:41;;;;;;;5.90;3.58;;;21.80;34.60;;;;;;5052459;28;20025;-16
2022/04/11 10:53:24;;;;;;;5.82;3.30;;;21.80;35.20;;;;;;5054251;28;20033;-16
2022/04/11 10:55:54;;;;;;;4.38;3.22;;;21.80;36.10;;;;;;5054156;28;20379;-16
2022/04/11 10:58:23;;;;;;;3.72;2.90;;;22.10;35.90;;;;;;5053678;28;20567;-16
2022/04/11 11:00:51;;;;;;;4.38;2.90;;;22.50;35.50;;;;;;5054142;28;20364;-16
2022/04/11 11:03:18;;;;;;;6.10;3.00;;;22.90;35.30;;;;;;5053403;28;20500;-16
2022/04/11 11:05:51;;;;;;;3.60;2.50;;;23.30;35.30;;;;;;5053631;28;20033;-16
2022/04/11 11:08:17;;;;;;;2.33;2.10;;;23.60;33.10;;;;;;5053290;28;20472;-16
2022/04/11 11:10:56;;;;;;;4.10;2.38;;;23.50;32.50;;;;;;5053746;28;20041;-16
2022/04/11 11:13:35;;;;;;;2.67;2.30;;;23.20;32.70;;;;;;5054275;28;20064;-16
2022/04/11 11:16:01;;;;;;;4.30;2.35;;;23.10;33.10;;;;;;5053643;28;20024;-16
2022/04/11 11:18:46;;;;;;;3.97;2.35;;;23.30;33.10;;;;;;5053365;28;20079;-17
2022/04/11 11:21:16;;;;;;;3.67;2.33;;;23.20;30.90;;;;;;5053247;28;20092;-20
2022/04/11 11:24:08;;;;;;;3.17;2.30;;;23.30;30.70;;;;;;5052065;28;20057;-17
2022/04/11 11:26:45;;;;;;;3.92;2.05;;;23.30;30.40;;;;;;5053387;28;20118;-15
2022/04/11 11:30:02;;;;;;;3.17;1.98;;;23.20;30.90;;;;;;5053564;28;20480;-15
2022/04/11 11:32:30;;;;;;;2.15;1.70;;;23.30;31.00;;;;;;5052889;28;20021;-16
2022/04/11 11:34:57;;;;;;;2.97;1.75;;;23.40;31.60;;;;;;5051802;28;20043;-15
2022/04/11 11:37:28;;;;;;;6.15;1.80;;;23.60;30.10;;;;;;5053282;28;20021;-16
2022/04/11 11:39:54;;;;;;;2.33;1.40;;;23.80;30.70;;;;;;5053376;28;20032;-16
2022/04/11 11:42:20;;;;;;;2.42;1.80;;;24.10;29.90;;;;;;5053264;28;20484;-16
2022/04/11 11:44:49;;;;;;;3.47;1.70;;;24.20;28.60;;;;;;5053441;28;20155;-15
2022/04/11 11:47:15;;;;;;;2.30;1.77;;;24.20;28.60;;;;;;5052960;28;20082;-18
2022/04/11 11:49:44;;;;;;;2.67;1.60;;;24.40;28.00;;;;;;5053279;28;20024;-16
2022/04/11 11:52:20;;;;;;;3.03;1.70;;;24.50;28.90;;;;;;5052844;28;20036;-17
2022/04/11 11:54:52;;;;;;;2.90;1.75;;;24.70;28.40;;;;;;5053417;28;20383;-17
2022/04/11 11:57:26;;;;;;;1.95;1.70;;;24.80;27.90;;;;;;5053104;28;20018;-16
2022/04/11 11:59:52;;;;;;;2.38;1.77;;;24.90;27.20;;;;;;5053243;28;20119;-16
2022/04/11 12:05:23;;;;;;;3.70;1.83;;;25.10;27.60;;;;;;5053000;28;20142;-17
2022/04/11 12:08:17;;;;;;;2.65;1.83;;;25.10;27.70;;;;;;5052836;28;20029;-16
2022/04/11 12:10:46;;;;;;;2.20;1.65;;;25.10;27.00;;;;;;5050980;28;20044;-16
2022/04/11 12:13:32;;;;;;;3.47;1.60;;;25.20;27.00;;;;;;5051032;28;20041;-17
2022/04/11 12:16:07;;;;;;;2.55;1.80;;;24.90;26.40;;;;;;5051516;28;20031;-17
2022/04/11 12:18:55;;;;;;;2.55;1.70;;;24.90;27.50;;;;;;5050710;28;20037;-17
2022/04/11 12:21:47;;;;;;;2.00;1.70;;;24.90;26.60;;;;;;5050774;28;20053;-16
2022/04/11 12:24:13;;;;;;;2.00;1.42;;;25.10;27.60;;;;;;5050627;28;20060;-17
2022/04/11 12:26:47;;;;;;;3.90;1.88;;;24.90;28.50;;;;;;5050868;28;20448;-15
2022/04/11 12:29:14;;;;;;;;;;;24.80;29.30;;;;;;5051010;28;20080;-16
2022/04/11 12:32:01;;;;;;;2.28;1.67;;;25.00;27.20;;;;;;5050549;28;19905;-16
2022/04/11 12:34:38;;;;;;;3.40;1.67;;;25.30;27.30;;;;;;5033827;28;20043;-15
2022/04/11 12:37:07;;;;;;;3.00;1.80;;;25.40;27.30;;;;;;5050467;28;20032;-16
2022/04/11 12:39:53;;;;;;;5.05;1.90;;;25.50;26.60;;;;;;5050450;28;20028;-16
2022/04/11 12:42:24;;;;;;;4.03;2.00;;;25.70;27.20;;;;;;5052955;28;20033;-16
2022/04/11 12:45:05;;;;;;;3.10;2.00;;;25.90;27.50;;;;;;5056742;28;20423;-15
2022/04/11 12:47:31;;;;;;;3.13;1.92;;;25.90;28.60;;;;;;5056631;28;20028;-16
2022/04/11 12:49:57;;;;;;;2.20;1.67;;;25.90;28.00;;;;;;5056519;28;20032;-15
2022/04/11 12:52:26;;;;;;;3.35;2.15;;;25.90;26.30;;;;;;5055771;28;20063;-16
2022/04/11 12:55:04;;;;;;;3.80;1.90;;;25.80;27.40;;;;;;5056418;28;20119;-15